createdAt,value
2019-06-20T00:01:06.285Z,16.50
2019-06-20T00:04:08.234Z,19.57
2019-06-20T00:07:10.892Z,14.50
2019-06-20T00:10:12.865Z,19.13
2019-06-20T00:13:14.726Z,17.40
2019-06-20T00:16:16.707Z,19.70
2019-06-20T00:19:18.649Z,14.87
2019-06-20T00:22:20.620Z,18.47
2019-06-20T00:25:22.526Z,16.13
2019-06-20T00:28:24.502Z,17.03
2019-06-20T00:31:26.478Z,14.27
2019-06-20T00:34:28.393Z,14.63
2019-06-20T00:37:30.331Z,20.97
2019-06-20T00:40:32.244Z,14.27
2019-06-20T00:43:34.141Z,16.77
2019-06-20T00:46:36.069Z,17.03
2019-06-20T00:49:38.140Z,18.17
2019-06-20T00:52:40.034Z,14.40
2019-06-20T00:55:42.090Z,20.27
2019-06-20T00:58:43.979Z,11.93
2019-06-20T01:01:46.018Z,14.33
2019-06-20T01:04:48.027Z,16.87
2019-06-20T01:07:49.973Z,14.90
2019-06-20T01:10:51.858Z,14.30
2019-06-20T01:13:53.782Z,14.10
2019-06-20T01:16:55.689Z,16.43
2019-06-20T01:19:58.406Z,19.37
2019-06-20T01:23:00.577Z,14.67
2019-06-20T01:26:02.532Z,19.53
2019-06-20T01:29:04.415Z,16.33
2019-06-20T01:32:06.578Z,16.63
2019-06-20T01:35:09.060Z,16.83
2019-06-20T01:38:11.056Z,18.30
2019-06-20T01:41:12.960Z,18.57
2019-06-20T01:44:14.937Z,19.07
2019-06-20T01:47:16.825Z,19.03
2019-06-20T01:53:20.097Z,19.60
2019-06-20T01:56:22.024Z,19.83
2019-06-20T01:59:23.969Z,22.47
2019-06-20T02:05:27.858Z,23.87
2019-06-20T02:08:29.779Z,26.80
2019-06-20T02:11:31.732Z,23.10
2019-06-20T02:14:33.735Z,28.73
2019-06-20T02:17:35.613Z,25.70
2019-06-20T02:20:50.214Z,21.23
2019-06-20T02:23:52.093Z,26.17
2019-06-20T02:26:54.050Z,23.50
2019-06-20T02:29:55.936Z,22.03
2019-06-20T02:32:57.903Z,23.47
2019-06-20T02:35:59.860Z,20.70
2019-06-20T02:39:01.818Z,22.57
2019-06-20T02:42:05.052Z,25.70
2019-06-20T02:45:07.223Z,25.50
2019-06-20T02:48:10.455Z,23.47
2019-06-20T02:51:12.374Z,26.53
2019-06-20T02:54:14.341Z,20.97
2019-06-20T02:57:16.208Z,22.23
2019-06-20T03:00:40.092Z,22.40
2019-06-20T03:03:42.187Z,19.67
2019-06-20T03:06:44.392Z,23.97
2019-06-20T03:09:46.451Z,19.90
2019-06-20T03:12:48.412Z,21.23
2019-06-20T03:15:50.336Z,23.07
2019-06-20T03:18:52.336Z,25.33
2019-06-20T03:21:54.345Z,25.60
2019-06-20T03:24:56.299Z,22.40
2019-06-20T03:27:58.370Z,28.40
2019-06-20T03:31:00.250Z,19.97
2019-06-20T03:34:02.331Z,22.93
2019-06-20T03:37:04.332Z,28.33
2019-06-20T03:40:06.653Z,17.43
2019-06-20T03:43:08.536Z,18.70
2019-06-20T03:46:10.528Z,18.57
2019-06-20T03:49:12.468Z,19.97
2019-06-20T03:52:14.366Z,20.40
2019-06-20T03:55:16.275Z,18.73
2019-06-20T03:58:19.325Z,25.13
2019-06-20T04:01:21.276Z,21.47
2019-06-20T04:04:24.611Z,18.10
2019-06-20T04:07:26.549Z,15.77
2019-06-20T04:10:28.463Z,14.63
2019-06-20T04:13:30.413Z,19.73
2019-06-20T04:16:32.323Z,14.87
2019-06-20T04:19:34.288Z,15.70
2019-06-20T04:22:37.355Z,13.20
2019-06-20T04:25:39.331Z,13.90
2019-06-20T04:28:41.172Z,14.27
2019-06-20T04:31:43.065Z,14.13
2019-06-20T04:34:45.034Z,12.10
2019-06-20T04:37:47.012Z,10.60
2019-06-20T04:40:48.885Z,18.63
2019-06-20T04:43:50.975Z,13.13
2019-06-20T04:46:55.847Z,11.20
2019-06-20T04:49:57.848Z,10.40
2019-06-20T04:52:59.762Z,12.50
2019-06-20T04:56:05.594Z,16.13
2019-06-20T04:59:06.530Z,11.73
2019-06-20T05:02:08.530Z,13.67
2019-06-20T05:05:10.691Z,13.57
2019-06-20T05:08:12.662Z,11.60
2019-06-20T05:11:14.545Z,8.97
2019-06-20T05:14:16.596Z,9.30
2019-06-20T05:17:18.530Z,8.13
2019-06-20T05:20:20.457Z,9.15
2019-06-20T05:23:22.329Z,6.97
2019-06-20T05:26:24.267Z,8.98
2019-06-20T05:29:26.139Z,7.87
2019-06-20T05:32:28.090Z,7.20
2019-06-20T05:35:30.850Z,7.00
2019-06-20T05:38:32.732Z,8.05
2019-06-20T05:41:34.603Z,8.25
2019-06-20T05:44:36.560Z,7.17
2019-06-20T05:47:38.634Z,8.18
2019-06-20T05:50:40.668Z,9.05
2019-06-20T05:53:42.733Z,6.53
2019-06-20T05:56:44.761Z,6.00
2019-06-20T05:59:46.780Z,5.35
2019-06-20T06:02:48.733Z,8.25
2019-06-20T06:05:50.792Z,6.40
2019-06-20T06:08:52.801Z,5.37
2019-06-20T06:11:54.739Z,5.15
2019-06-20T06:14:56.767Z,9.20
2019-06-20T06:18:00.577Z,5.72
2019-06-20T06:21:02.708Z,5.43
2019-06-20T06:24:04.973Z,6.78
2019-06-20T06:27:07.038Z,5.80
2019-06-20T06:30:10.655Z,6.90
2019-06-20T06:33:13.064Z,7.53
2019-06-20T06:36:15.044Z,5.80
2019-06-20T06:39:16.978Z,5.90
2019-06-20T06:42:19.662Z,6.27
2019-06-20T06:45:22.135Z,5.97
2019-06-20T06:48:24.130Z,7.93
2019-06-20T06:51:26.453Z,10.10
2019-06-20T06:54:28.457Z,17.90
2019-06-20T06:57:30.414Z,7.40
2019-06-20T07:00:32.400Z,6.37
2019-06-20T07:03:34.292Z,5.63
2019-06-20T07:06:36.336Z,6.23
2019-06-20T07:09:38.264Z,5.30
2019-06-20T07:12:40.220Z,6.27
2019-06-20T07:15:42.781Z,6.13
2019-06-20T07:18:44.717Z,6.30
2019-06-20T07:21:46.663Z,6.10
2019-06-20T07:24:48.580Z,6.40
2019-06-20T07:27:50.474Z,7.47
2019-06-20T07:30:52.446Z,17.27
2019-06-20T07:33:54.296Z,6.97
2019-06-20T07:36:56.268Z,6.20
2019-06-20T07:39:58.237Z,7.63
2019-06-20T07:43:00.205Z,6.10
2019-06-20T07:46:03.289Z,5.93
2019-06-20T07:49:05.760Z,7.70
2019-06-20T07:52:07.686Z,6.87
2019-06-20T07:55:09.736Z,6.03
2019-06-20T07:58:11.713Z,6.80
2019-06-20T08:01:13.759Z,8.07
2019-06-20T08:04:15.677Z,6.33
2019-06-20T08:07:19.460Z,8.50
2019-06-20T08:10:21.582Z,6.90
2019-06-20T08:13:23.494Z,6.17
2019-06-20T08:16:25.399Z,6.28
2019-06-20T08:19:27.263Z,7.20
2019-06-20T08:22:29.265Z,6.72
2019-06-20T08:25:31.145Z,9.05
2019-06-20T08:28:33.001Z,9.73
2019-06-20T08:31:34.874Z,4.78
2019-06-20T08:34:36.809Z,5.22
2019-06-20T08:37:38.769Z,8.48
2019-06-20T08:40:40.708Z,5.60
2019-06-20T08:43:42.648Z,5.87
2019-06-20T08:46:44.583Z,5.70
2019-06-20T08:49:46.470Z,5.65
2019-06-20T08:52:48.471Z,6.80
2019-06-20T08:55:50.381Z,5.20
2019-06-20T08:58:52.297Z,6.12
2019-06-20T09:01:56.556Z,6.62
2019-06-20T09:04:58.102Z,5.78
2019-06-20T09:11:04.008Z,6.45
2019-06-20T09:14:07.823Z,5.58
2019-06-20T09:17:09.742Z,5.55
2019-06-20T09:20:12.923Z,4.83
2019-06-20T09:23:14.845Z,5.05
2019-06-20T09:26:16.902Z,4.00
2019-06-20T09:29:18.980Z,4.20
2019-06-20T09:32:21.163Z,3.67
2019-06-20T09:35:23.388Z,4.15
2019-06-20T09:38:25.439Z,4.33
2019-06-20T09:41:27.413Z,6.30
2019-06-20T09:44:29.771Z,13.00
2019-06-20T09:47:31.705Z,4.55
2019-06-20T09:50:33.700Z,4.20
2019-06-20T09:53:35.592Z,7.08
2019-06-20T09:56:37.648Z,4.47
2019-06-20T09:59:39.559Z,4.10
2019-06-20T10:02:41.898Z,4.55
2019-06-20T10:05:43.797Z,4.15
2019-06-20T10:08:47.099Z,5.97
2019-06-20T10:11:49.829Z,7.25
2019-06-20T10:14:51.808Z,4.10
2019-06-20T10:17:54.535Z,4.37
2019-06-20T10:20:57.716Z,5.83
2019-06-20T10:24:01.105Z,5.17
2019-06-20T10:27:03.186Z,5.95
2019-06-20T10:30:14.300Z,6.83
2019-06-20T10:33:10.495Z,4.62
2019-06-20T10:36:12.338Z,5.83
2019-06-20T10:39:14.373Z,9.20
2019-06-20T10:42:16.304Z,4.25
2019-06-20T10:45:21.193Z,6.53
2019-06-20T10:48:22.745Z,6.03
2019-06-20T10:51:32.726Z,6.70
2019-06-20T10:54:34.699Z,8.83
2019-06-20T10:57:36.680Z,5.65
2019-06-20T11:00:40.014Z,4.95
2019-06-20T11:03:43.499Z,4.85
2019-06-20T11:06:45.727Z,8.60
2019-06-20T11:09:49.399Z,4.70
2019-06-20T11:12:55.625Z,5.25
2019-06-20T11:15:55.845Z,10.08
2019-06-20T11:18:57.749Z,5.45
2019-06-20T11:21:59.680Z,5.08
2019-06-20T11:25:05.008Z,6.28
2019-06-20T11:28:06.935Z,6.10
2019-06-20T11:31:08.860Z,6.47
2019-06-20T11:34:10.761Z,5.22
2019-06-20T11:37:12.759Z,7.00
2019-06-20T11:40:15.743Z,5.35
2019-06-20T11:43:17.737Z,5.20
2019-06-20T11:46:19.604Z,6.17
2019-06-20T11:49:21.849Z,6.17
2019-06-20T11:52:23.926Z,5.15
2019-06-20T11:55:25.748Z,4.53
2019-06-20T11:58:27.726Z,6.33
2019-06-20T12:01:32.806Z,4.50
2019-06-20T12:04:35.457Z,4.33
2019-06-20T12:07:39.594Z,4.90
2019-06-20T12:10:43.177Z,4.50
2019-06-20T12:13:46.407Z,4.45
2019-06-20T12:16:49.412Z,3.62
2019-06-20T12:19:53.648Z,4.87
2019-06-20T12:22:55.574Z,5.00
2019-06-20T12:25:57.576Z,4.50
2019-06-20T12:28:59.319Z,4.80
2019-06-20T12:32:01.219Z,4.15
2019-06-20T12:35:04.336Z,4.78
2019-06-20T12:38:06.288Z,4.15
2019-06-20T12:41:08.351Z,4.83
2019-06-20T12:44:10.345Z,4.55
2019-06-20T12:47:12.394Z,4.53
2019-06-20T12:50:15.201Z,5.40
2019-06-20T12:53:18.897Z,5.58
2019-06-20T12:56:20.788Z,4.87
2019-06-20T12:59:23.028Z,6.85
2019-06-20T13:02:25.007Z,4.78
2019-06-20T13:05:27.028Z,6.47
2019-06-20T13:11:29.975Z,6.80
2019-06-20T13:14:33.361Z,6.03
2019-06-20T13:17:35.293Z,6.17
2019-06-20T13:20:39.416Z,6.90
2019-06-20T13:23:43.198Z,6.00
2019-06-20T13:26:45.219Z,18.95
2019-06-20T13:29:47.737Z,9.73
2019-06-20T13:32:50.226Z,13.15
2019-06-20T13:35:52.172Z,7.15
2019-06-20T13:38:54.194Z,8.70
2019-06-20T13:41:56.180Z,7.03
2019-06-20T13:45:00.422Z,6.70
2019-06-20T13:48:03.123Z,8.38
2019-06-20T13:51:05.103Z,7.15
2019-06-20T13:54:07.165Z,6.97
2019-06-20T13:57:09.093Z,5.85
2019-06-20T14:00:11.894Z,7.05
2019-06-20T14:03:14.315Z,6.78
2019-06-20T14:06:16.215Z,6.47
2019-06-20T14:09:18.173Z,8.50
2019-06-20T14:12:20.089Z,6.72
2019-06-20T14:15:23.418Z,8.57
2019-06-20T14:18:26.304Z,7.40
2019-06-20T14:21:28.305Z,12.30
2019-06-20T14:24:32.924Z,8.20
2019-06-20T14:27:35.174Z,7.67
2019-06-20T14:30:37.331Z,6.63
2019-06-20T14:33:39.324Z,6.60
2019-06-20T14:36:41.246Z,5.40
2019-06-20T14:39:44.869Z,6.57
2019-06-20T14:42:48.003Z,7.10
2019-06-20T14:45:50.788Z,7.10
2019-06-20T14:48:54.199Z,6.47
2019-06-20T14:51:56.339Z,6.80
2019-06-20T14:54:58.253Z,7.33
2019-06-20T14:58:01.677Z,7.10
2019-06-20T15:01:03.639Z,5.60
2019-06-20T15:04:07.458Z,5.70
2019-06-20T15:07:09.380Z,7.33
2019-06-20T15:10:15.269Z,5.70
2019-06-20T15:13:17.138Z,5.63
2019-06-20T15:16:19.223Z,5.97
2019-06-20T15:19:21.093Z,4.77
2019-06-20T15:22:25.105Z,6.30
2019-06-20T15:25:27.061Z,6.53
2019-06-20T15:28:29.027Z,5.77
2019-06-20T15:31:31.325Z,4.77
2019-06-20T15:34:33.227Z,6.53
2019-06-20T15:37:35.252Z,4.77
2019-06-20T15:40:37.258Z,4.60
2019-06-20T15:43:39.721Z,9.33
2019-06-20T15:46:41.665Z,7.60
2019-06-20T15:49:43.564Z,3.63
2019-06-20T15:52:47.580Z,5.83
2019-06-20T15:55:49.707Z,4.27
2019-06-20T15:58:51.764Z,10.60
2019-06-20T16:01:53.616Z,4.27
2019-06-20T16:04:55.551Z,15.87
2019-06-20T16:07:57.683Z,4.57
2019-06-20T16:11:00.542Z,5.13
2019-06-20T16:14:02.583Z,3.73
2019-06-20T16:17:06.538Z,6.07
2019-06-20T16:20:09.154Z,8.57
2019-06-20T16:23:11.066Z,4.60
2019-06-20T16:26:13.028Z,4.37
2019-06-20T16:29:14.954Z,3.20
2019-06-20T16:32:18.007Z,15.23
2019-06-20T16:35:19.912Z,3.60
2019-06-20T16:38:21.871Z,3.60
2019-06-20T16:41:23.763Z,4.73
2019-06-20T16:44:27.004Z,7.23
2019-06-20T16:47:29.332Z,8.27
2019-06-20T16:50:31.355Z,6.67
2019-06-20T16:53:34.614Z,5.10
2019-06-20T16:56:39.720Z,8.80
2019-06-20T16:59:41.774Z,4.80
2019-06-20T17:02:43.744Z,7.27
2019-06-20T17:05:45.686Z,3.90
2019-06-20T17:08:47.732Z,6.40
2019-06-20T17:11:49.715Z,4.73
2019-06-20T17:14:51.640Z,4.30
2019-06-20T17:17:55.644Z,3.87
2019-06-20T17:20:57.579Z,4.17
2019-06-20T17:23:59.846Z,4.00
2019-06-20T17:27:01.798Z,3.60
2019-06-20T17:30:13.610Z,11.33
2019-06-20T17:33:15.564Z,15.27
2019-06-20T17:36:18.738Z,5.50
2019-06-20T17:39:21.104Z,3.90
2019-06-20T17:42:23.052Z,3.60
2019-06-20T17:45:28.229Z,3.97
2019-06-20T17:48:30.253Z,4.23
2019-06-20T17:51:32.199Z,4.53
2019-06-20T17:54:34.108Z,6.80
2019-06-20T17:57:36.136Z,7.00
2019-06-20T18:00:38.082Z,3.67
2019-06-20T18:03:41.943Z,3.80
2019-06-20T18:06:44.771Z,4.77
2019-06-20T18:09:48.871Z,4.60
2019-06-20T18:12:51.852Z,5.93
2019-06-20T18:15:53.845Z,5.70
2019-06-20T18:18:57.002Z,5.93
2019-06-20T18:21:58.936Z,6.47
2019-06-20T18:25:00.896Z,4.87
2019-06-20T18:28:03.052Z,5.63
2019-06-20T18:31:04.920Z,5.10
2019-06-20T18:34:06.886Z,7.23
2019-06-20T18:37:09.887Z,4.80
2019-06-20T18:40:11.932Z,5.47
2019-06-20T18:43:14.831Z,4.77
2019-06-20T18:46:17.017Z,4.93
2019-06-20T18:49:18.943Z,6.07
2019-06-20T18:52:23.806Z,6.17
2019-06-20T18:55:25.694Z,6.93
2019-06-20T18:58:27.599Z,5.80
2019-06-20T19:01:31.385Z,5.43
2019-06-20T19:04:46.485Z,9.43
2019-06-20T19:07:38.665Z,6.03
2019-06-20T19:10:42.495Z,7.83
2019-06-20T19:13:45.720Z,6.53
2019-06-20T19:16:51.341Z,7.13
2019-06-20T19:19:55.267Z,6.73
2019-06-20T19:22:57.128Z,9.43
2019-06-20T19:25:59.184Z,9.40
2019-06-20T19:29:02.916Z,7.80
2019-06-20T19:32:05.918Z,7.90
2019-06-20T19:35:10.323Z,7.20
2019-06-20T19:38:12.485Z,8.90
2019-06-20T19:41:14.378Z,9.30
2019-06-20T19:44:18.567Z,7.33
2019-06-20T19:47:20.573Z,15.57
2019-06-20T19:50:25.512Z,9.77
2019-06-20T19:53:29.058Z,11.60
2019-06-20T19:56:31.097Z,7.97
2019-06-20T19:59:33.268Z,9.17
2019-06-20T20:02:35.286Z,10.93
2019-06-20T20:05:37.301Z,10.80
2019-06-20T20:08:39.253Z,11.93
2019-06-20T20:11:41.547Z,13.30
2019-06-20T20:14:43.788Z,13.87
2019-06-20T20:17:46.772Z,13.70
2019-06-20T20:20:49.676Z,17.23
2019-06-20T20:23:51.873Z,13.53
2019-06-20T20:26:54.156Z,17.60
2019-06-20T20:29:57.287Z,15.63
2019-06-20T20:33:02.010Z,20.57
2019-06-20T20:36:03.350Z,12.53
2019-06-20T20:39:06.181Z,11.87
2019-06-20T20:42:09.472Z,11.67
2019-06-20T20:45:11.677Z,12.30
2019-06-20T20:48:17.677Z,13.13
2019-06-20T20:51:19.694Z,16.20
2019-06-20T20:54:22.163Z,12.47
2019-06-20T20:57:26.735Z,12.07
2019-06-20T21:00:56.746Z,12.67
2019-06-20T21:03:59.227Z,14.33
2019-06-20T21:07:02.086Z,13.37
2019-06-20T21:10:08.871Z,13.60
2019-06-20T21:13:10.948Z,12.87
2019-06-20T21:16:12.922Z,13.67
2019-06-20T21:19:14.865Z,13.33
2019-06-20T21:22:17.279Z,14.73
2019-06-20T21:25:19.226Z,11.87
2019-06-20T21:28:21.246Z,12.63
2019-06-20T21:31:23.333Z,13.13
2019-06-20T21:34:25.404Z,11.30
2019-06-20T21:37:29.146Z,12.57
2019-06-20T21:40:31.061Z,11.00
2019-06-20T21:43:33.028Z,12.83
2019-06-20T21:46:34.972Z,12.70
2019-06-20T21:49:36.897Z,12.33
2019-06-20T21:52:38.904Z,13.43
2019-06-20T21:55:40.833Z,13.17
2019-06-20T21:58:42.747Z,11.73
2019-06-20T22:01:48.249Z,13.53
2019-06-20T22:04:54.476Z,13.73
2019-06-20T22:07:54.953Z,12.53
2019-06-20T22:10:56.985Z,14.07
2019-06-20T22:13:58.998Z,14.30
2019-06-20T22:17:00.887Z,12.90
2019-06-20T22:20:07.833Z,12.77
2019-06-20T22:23:09.931Z,12.47
2019-06-20T22:26:11.912Z,13.83
2019-06-20T22:29:13.829Z,13.43
2019-06-20T22:32:15.826Z,13.10
2019-06-20T22:35:17.718Z,15.30
2019-06-20T22:38:19.658Z,15.87
2019-06-20T22:41:21.608Z,15.00
2019-06-20T22:44:23.516Z,15.40
2019-06-20T22:47:25.460Z,16.57
2019-06-20T22:50:27.339Z,18.20
2019-06-20T22:53:29.365Z,16.80
2019-06-20T22:56:31.289Z,14.07
2019-06-20T22:59:33.240Z,18.03
2019-06-20T23:02:35.157Z,13.07
2019-06-20T23:05:37.095Z,15.20
2019-06-20T23:08:39.110Z,13.67
2019-06-20T23:11:41.066Z,13.40
2019-06-20T23:14:42.980Z,12.67
2019-06-20T23:17:44.910Z,14.97
2019-06-20T23:21:03.692Z,13.40
2019-06-20T23:23:51.944Z,13.90
2019-06-20T23:26:53.815Z,14.13
2019-06-20T23:29:55.918Z,14.53
2019-06-20T23:32:57.807Z,13.90
2019-06-20T23:35:59.746Z,19.73
2019-06-20T23:39:01.610Z,16.17
2019-06-20T23:42:05.404Z,12.77
2019-06-20T23:45:08.863Z,13.33
2019-06-20T23:48:10.779Z,17.13
2019-06-20T23:51:24.988Z,13.60
2019-06-20T23:54:16.550Z,13.80
2019-06-20T23:57:18.429Z,16.40
